sensor_id;sensor_type;location;lat;lon;timestamp;temperature;humidity
76537;DHT22;65381;51.254;15.592;2023-02-08T00:01:19;-2.30;65.50
76537;DHT22;65381;51.254;15.592;2023-02-08T00:03:47;-2.30;65.40
76537;DHT22;65381;51.254;15.592;2023-02-08T00:06:16;-2.30;65.40
76537;DHT22;65381;51.254;15.592;2023-02-08T00:08:44;-2.30;65.40
76537;DHT22;65381;51.254;15.592;2023-02-08T00:11:13;-2.30;65.40
76537;DHT22;65381;51.254;15.592;2023-02-08T00:13:41;-2.40;65.40
76537;DHT22;65381;51.254;15.592;2023-02-08T00:16:10;-2.40;65.50
76537;DHT22;65381;51.254;15.592;2023-02-08T00:18:39;-2.50;65.70
76537;DHT22;65381;51.254;15.592;2023-02-08T00:21:12;-2.50;65.70
76537;DHT22;65381;51.254;15.592;2023-02-08T00:23:40;-2.50;65.80
76537;DHT22;65381;51.254;15.592;2023-02-08T00:26:09;-2.50;65.80
76537;DHT22;65381;51.254;15.592;2023-02-08T00:28:38;-2.50;65.80
76537;DHT22;65381;51.254;15.592;2023-02-08T00:31:06;-2.50;65.80
76537;DHT22;65381;51.254;15.592;2023-02-08T00:33:35;-2.50;65.90
76537;DHT22;65381;51.254;15.592;2023-02-08T00:36:06;-2.50;65.90
76537;DHT22;65381;51.254;15.592;2023-02-08T00:38:35;-2.50;66.00
76537;DHT22;65381;51.254;15.592;2023-02-08T00:41:03;-2.40;66.00
76537;DHT22;65381;51.254;15.592;2023-02-08T00:43:32;-2.40;66.00
76537;DHT22;65381;51.254;15.592;2023-02-08T00:46:00;-2.30;66.00
76537;DHT22;65381;51.254;15.592;2023-02-08T00:48:28;-2.30;66.10
76537;DHT22;65381;51.254;15.592;2023-02-08T00:51:02;-2.20;66.10
76537;DHT22;65381;51.254;15.592;2023-02-08T00:53:35;-2.20;66.20
76537;DHT22;65381;51.254;15.592;2023-02-08T00:56:05;-2.20;66.10
76537;DHT22;65381;51.254;15.592;2023-02-08T00:58:33;-2.10;66.10
76537;DHT22;65381;51.254;15.592;2023-02-08T01:01:03;-2.10;66.20
76537;DHT22;65381;51.254;15.592;2023-02-08T01:03:37;-2.10;66.20
76537;DHT22;65381;51.254;15.592;2023-02-08T01:06:09;-2.10;66.30
76537;DHT22;65381;51.254;15.592;2023-02-08T01:08:37;-2.10;66.30
76537;DHT22;65381;51.254;15.592;2023-02-08T01:11:14;-2.10;66.40
76537;DHT22;65381;51.254;15.592;2023-02-08T01:13:43;-2.10;66.50
76537;DHT22;65381;51.254;15.592;2023-02-08T01:16:14;-2.20;66.50
76537;DHT22;65381;51.254;15.592;2023-02-08T01:18:45;-2.20;66.50
76537;DHT22;65381;51.254;15.592;2023-02-08T01:21:17;-2.20;66.60
76537;DHT22;65381;51.254;15.592;2023-02-08T01:23:46;-2.30;66.60
76537;DHT22;65381;51.254;15.592;2023-02-08T01:26:16;-2.30;66.60
76537;DHT22;65381;51.254;15.592;2023-02-08T01:28:45;-2.40;66.70
76537;DHT22;65381;51.254;15.592;2023-02-08T01:31:19;-2.40;66.70
76537;DHT22;65381;51.254;15.592;2023-02-08T01:33:47;-2.50;66.70
76537;DHT22;65381;51.254;15.592;2023-02-08T01:36:16;-2.60;66.70
76537;DHT22;65381;51.254;15.592;2023-02-08T01:38:45;-2.60;66.60
76537;DHT22;65381;51.254;15.592;2023-02-08T01:41:26;-2.70;66.70
76537;DHT22;65381;51.254;15.592;2023-02-08T01:46:44;-2.80;66.60
76537;DHT22;65381;51.254;15.592;2023-02-08T01:49:32;-2.80;66.60
76537;DHT22;65381;51.254;15.592;2023-02-08T01:52:08;-2.90;66.50
76537;DHT22;65381;51.254;15.592;2023-02-08T01:55:23;-3.00;66.50
76537;DHT22;65381;51.254;15.592;2023-02-08T01:57:31;-3.00;66.60
76537;DHT22;65381;51.254;15.592;2023-02-08T02:00:21;-3.10;66.60
76537;DHT22;65381;51.254;15.592;2023-02-08T02:02:52;-3.10;66.60
76537;DHT22;65381;51.254;15.592;2023-02-08T02:05:23;-3.10;66.60
76537;DHT22;65381;51.254;15.592;2023-02-08T02:07:53;-3.20;66.50
76537;DHT22;65381;51.254;15.592;2023-02-08T02:10:29;-3.20;66.60
76537;DHT22;65381;51.254;15.592;2023-02-08T02:13:11;-3.20;66.60
76537;DHT22;65381;51.254;15.592;2023-02-08T02:15:43;-3.20;66.70
76537;DHT22;65381;51.254;15.592;2023-02-08T02:18:26;-3.20;66.70
76537;DHT22;65381;51.254;15.592;2023-02-08T02:30:09;-3.20;67.00
76537;DHT22;65381;51.254;15.592;2023-02-08T02:36:01;-3.20;67.10
76537;DHT22;65381;51.254;15.592;2023-02-08T02:41:56;-3.20;67.10
76537;DHT22;65381;51.254;15.592;2023-02-08T02:52:55;-2.90;67.40
76537;DHT22;65381;51.254;15.592;2023-02-08T02:55:27;-2.80;67.50
76537;DHT22;65381;51.254;15.592;2023-02-08T02:57:57;-2.80;67.70
76537;DHT22;65381;51.254;15.592;2023-02-08T03:00:28;-2.70;67.70
76537;DHT22;65381;51.254;15.592;2023-02-08T03:02:57;-2.70;67.60
76537;DHT22;65381;51.254;15.592;2023-02-08T03:05:26;-2.60;67.70
76537;DHT22;65381;51.254;15.592;2023-02-08T03:11:05;-2.60;67.90
76537;DHT22;65381;51.254;15.592;2023-02-08T03:20:19;-2.60;68.50
76537;DHT22;65381;51.254;15.592;2023-02-08T03:25:21;-2.50;68.30
76537;DHT22;65381;51.254;15.592;2023-02-08T03:28:23;-2.50;68.40
76537;DHT22;65381;51.254;15.592;2023-02-08T03:31:19;-2.50;68.40
76537;DHT22;65381;51.254;15.592;2023-02-08T03:34:13;-2.50;68.60
76537;DHT22;65381;51.254;15.592;2023-02-08T03:36:56;-2.50;68.70
76537;DHT22;65381;51.254;15.592;2023-02-08T03:39:27;-2.50;68.90
76537;DHT22;65381;51.254;15.592;2023-02-08T03:41:59;-2.50;68.70
76537;DHT22;65381;51.254;15.592;2023-02-08T03:44:29;-2.50;68.70
76537;DHT22;65381;51.254;15.592;2023-02-08T03:47:21;-2.40;69.00
76537;DHT22;65381;51.254;15.592;2023-02-08T03:49:51;-2.50;68.90
76537;DHT22;65381;51.254;15.592;2023-02-08T03:52:21;-2.40;68.80
76537;DHT22;65381;51.254;15.592;2023-02-08T03:54:55;-2.40;69.00
76537;DHT22;65381;51.254;15.592;2023-02-08T03:58:05;-2.40;68.90
76537;DHT22;65381;51.254;15.592;2023-02-08T04:00:36;-2.30;68.80
76537;DHT22;65381;51.254;15.592;2023-02-08T04:03:11;-2.30;68.70
76537;DHT22;65381;51.254;15.592;2023-02-08T04:05:40;-2.30;68.90
76537;DHT22;65381;51.254;15.592;2023-02-08T04:08:08;-2.30;69.00
76537;DHT22;65381;51.254;15.592;2023-02-08T04:10:36;-2.30;69.00
76537;DHT22;65381;51.254;15.592;2023-02-08T04:13:04;-2.30;69.00
76537;DHT22;65381;51.254;15.592;2023-02-08T04:15:32;-2.30;69.10
76537;DHT22;65381;51.254;15.592;2023-02-08T04:18:00;-2.30;69.00
76537;DHT22;65381;51.254;15.592;2023-02-08T04:20:28;-2.30;69.00
76537;DHT22;65381;51.254;15.592;2023-02-08T04:22:56;-2.20;69.00
76537;DHT22;65381;51.254;15.592;2023-02-08T04:25:24;-2.20;68.90
76537;DHT22;65381;51.254;15.592;2023-02-08T04:27:52;-2.20;68.90
76537;DHT22;65381;51.254;15.592;2023-02-08T04:30:20;-2.20;69.00
76537;DHT22;65381;51.254;15.592;2023-02-08T04:32:48;-2.20;69.10
76537;DHT22;65381;51.254;15.592;2023-02-08T04:35:16;-2.10;69.00
76537;DHT22;65381;51.254;15.592;2023-02-08T04:37:44;-2.10;69.00
76537;DHT22;65381;51.254;15.592;2023-02-08T04:40:11;-2.10;69.00
76537;DHT22;65381;51.254;15.592;2023-02-08T04:42:40;-2.10;69.00
76537;DHT22;65381;51.254;15.592;2023-02-08T04:45:08;-2.10;69.00
76537;DHT22;65381;51.254;15.592;2023-02-08T04:47:36;-2.10;69.10
76537;DHT22;65381;51.254;15.592;2023-02-08T04:50:04;-2.10;69.10
76537;DHT22;65381;51.254;15.592;2023-02-08T04:52:32;-2.10;69.20
76537;DHT22;65381;51.254;15.592;2023-02-08T04:55:00;-2.10;69.20
76537;DHT22;65381;51.254;15.592;2023-02-08T04:57:28;-2.10;69.20
76537;DHT22;65381;51.254;15.592;2023-02-08T04:59:55;-2.00;69.10
76537;DHT22;65381;51.254;15.592;2023-02-08T05:02:26;-1.90;69.10
76537;DHT22;65381;51.254;15.592;2023-02-08T05:04:55;-1.90;69.10
76537;DHT22;65381;51.254;15.592;2023-02-08T05:07:23;-1.90;69.10
76537;DHT22;65381;51.254;15.592;2023-02-08T05:09:50;-1.90;69.00
76537;DHT22;65381;51.254;15.592;2023-02-08T05:12:18;-1.90;69.10
76537;DHT22;65381;51.254;15.592;2023-02-08T05:14:46;-2.00;69.20
76537;DHT22;65381;51.254;15.592;2023-02-08T05:17:14;-2.00;69.20
76537;DHT22;65381;51.254;15.592;2023-02-08T05:19:42;-2.10;69.30
76537;DHT22;65381;51.254;15.592;2023-02-08T05:22:10;-2.10;69.40
76537;DHT22;65381;51.254;15.592;2023-02-08T05:24:37;-2.10;69.40
76537;DHT22;65381;51.254;15.592;2023-02-08T05:27:05;-2.10;69.40
76537;DHT22;65381;51.254;15.592;2023-02-08T05:29:33;-2.10;69.50
76537;DHT22;65381;51.254;15.592;2023-02-08T05:32:01;-2.10;69.50
76537;DHT22;65381;51.254;15.592;2023-02-08T05:34:29;-2.10;69.70
76537;DHT22;65381;51.254;15.592;2023-02-08T05:36:57;-2.10;69.70
76537;DHT22;65381;51.254;15.592;2023-02-08T05:39:25;-2.20;69.70
76537;DHT22;65381;51.254;15.592;2023-02-08T05:41:53;-2.10;69.70
76537;DHT22;65381;51.254;15.592;2023-02-08T05:44:21;-2.20;69.70
76537;DHT22;65381;51.254;15.592;2023-02-08T05:46:49;-2.10;69.70
76537;DHT22;65381;51.254;15.592;2023-02-08T05:49:16;-2.10;69.70
76537;DHT22;65381;51.254;15.592;2023-02-08T05:51:44;-2.20;69.70
76537;DHT22;65381;51.254;15.592;2023-02-08T05:54:12;-2.20;69.80
76537;DHT22;65381;51.254;15.592;2023-02-08T05:56:40;-2.20;69.70
76537;DHT22;65381;51.254;15.592;2023-02-08T05:59:08;-2.30;69.70
76537;DHT22;65381;51.254;15.592;2023-02-08T06:01:37;-2.20;69.80
76537;DHT22;65381;51.254;15.592;2023-02-08T06:04:04;-2.30;69.80
76537;DHT22;65381;51.254;15.592;2023-02-08T06:06:33;-2.30;69.80
76537;DHT22;65381;51.254;15.592;2023-02-08T06:09:01;-2.30;69.80
76537;DHT22;65381;51.254;15.592;2023-02-08T06:11:29;-2.20;69.80
76537;DHT22;65381;51.254;15.592;2023-02-08T06:13:56;-2.20;69.80
76537;DHT22;65381;51.254;15.592;2023-02-08T06:16:24;-2.20;69.80
76537;DHT22;65381;51.254;15.592;2023-02-08T06:18:53;-2.20;69.80
76537;DHT22;65381;51.254;15.592;2023-02-08T06:21:21;-2.20;69.70
76537;DHT22;65381;51.254;15.592;2023-02-08T06:23:50;-2.20;69.80
76537;DHT22;65381;51.254;15.592;2023-02-08T06:26:18;-2.20;69.80
76537;DHT22;65381;51.254;15.592;2023-02-08T06:28:46;-2.20;69.90
76537;DHT22;65381;51.254;15.592;2023-02-08T06:31:14;-2.10;69.90
76537;DHT22;65381;51.254;15.592;2023-02-08T06:33:42;-2.10;69.90
76537;DHT22;65381;51.254;15.592;2023-02-08T06:36:10;-2.10;69.90
76537;DHT22;65381;51.254;15.592;2023-02-08T06:38:38;-2.10;69.80
76537;DHT22;65381;51.254;15.592;2023-02-08T06:41:06;-2.10;69.80
76537;DHT22;65381;51.254;15.592;2023-02-08T06:43:33;-2.00;69.80
76537;DHT22;65381;51.254;15.592;2023-02-08T06:46:02;-1.90;69.70
76537;DHT22;65381;51.254;15.592;2023-02-08T06:48:31;-1.80;69.70
76537;DHT22;65381;51.254;15.592;2023-02-08T06:50:59;-1.80;69.60
76537;DHT22;65381;51.254;15.592;2023-02-08T06:53:27;-1.70;69.60
76537;DHT22;65381;51.254;15.592;2023-02-08T06:55:56;-1.70;69.60
76537;DHT22;65381;51.254;15.592;2023-02-08T06:58:24;-1.70;69.60
76537;DHT22;65381;51.254;15.592;2023-02-08T07:00:52;-1.70;69.60
76537;DHT22;65381;51.254;15.592;2023-02-08T07:03:20;-1.80;69.60
76537;DHT22;65381;51.254;15.592;2023-02-08T07:05:49;-1.80;69.70
76537;DHT22;65381;51.254;15.592;2023-02-08T07:08:32;-1.80;69.80
76537;DHT22;65381;51.254;15.592;2023-02-08T07:11:06;-1.90;69.80
76537;DHT22;65381;51.254;15.592;2023-02-08T07:13:34;-2.10;69.90
76537;DHT22;65381;51.254;15.592;2023-02-08T07:16:04;-2.10;70.10
76537;DHT22;65381;51.254;15.592;2023-02-08T07:18:32;-2.00;70.20
76537;DHT22;65381;51.254;15.592;2023-02-08T07:21:01;-2.00;70.10
76537;DHT22;65381;51.254;15.592;2023-02-08T07:23:29;-1.90;70.10
76537;DHT22;65381;51.254;15.592;2023-02-08T07:26:06;-1.90;70.10
76537;DHT22;65381;51.254;15.592;2023-02-08T07:28:35;-1.80;70.10
76537;DHT22;65381;51.254;15.592;2023-02-08T07:31:08;-1.70;70.10
76537;DHT22;65381;51.254;15.592;2023-02-08T07:33:37;-1.60;69.80
76537;DHT22;65381;51.254;15.592;2023-02-08T07:36:06;-1.60;69.90
76537;DHT22;65381;51.254;15.592;2023-02-08T07:38:36;-1.50;70.00
76537;DHT22;65381;51.254;15.592;2023-02-08T07:41:10;-1.50;69.80
76537;DHT22;65381;51.254;15.592;2023-02-08T07:43:39;-1.50;69.90
76537;DHT22;65381;51.254;15.592;2023-02-08T07:46:11;-1.40;70.10
76537;DHT22;65381;51.254;15.592;2023-02-08T07:48:40;-1.20;70.20
76537;DHT22;65381;51.254;15.592;2023-02-08T07:51:09;-1.10;70.30
76537;DHT22;65381;51.254;15.592;2023-02-08T07:53:38;-1.00;70.20
76537;DHT22;65381;51.254;15.592;2023-02-08T07:56:06;-1.00;69.90
76537;DHT22;65381;51.254;15.592;2023-02-08T07:58:36;-1.10;70.00
76537;DHT22;65381;51.254;15.592;2023-02-08T08:01:05;-1.20;69.90
76537;DHT22;65381;51.254;15.592;2023-02-08T08:03:49;-1.20;70.20
76537;DHT22;65381;51.254;15.592;2023-02-08T08:06:19;-1.20;70.20
76537;DHT22;65381;51.254;15.592;2023-02-08T08:08:48;-1.10;70.20
76537;DHT22;65381;51.254;15.592;2023-02-08T08:11:18;-1.10;70.00
76537;DHT22;65381;51.254;15.592;2023-02-08T08:13:46;-1.10;70.00
76537;DHT22;65381;51.254;15.592;2023-02-08T08:16:15;-1.00;70.00
76537;DHT22;65381;51.254;15.592;2023-02-08T08:18:45;-1.00;70.00
76537;DHT22;65381;51.254;15.592;2023-02-08T08:21:14;-0.80;70.00
76537;DHT22;65381;51.254;15.592;2023-02-08T08:23:43;-0.70;69.90
76537;DHT22;65381;51.254;15.592;2023-02-08T08:26:13;-0.20;70.60
76537;DHT22;65381;51.254;15.592;2023-02-08T08:28:42;0.80;71.50
76537;DHT22;65381;51.254;15.592;2023-02-08T08:31:14;2.20;72.30
76537;DHT22;65381;51.254;15.592;2023-02-08T08:33:42;3.90;73.10
76537;DHT22;65381;51.254;15.592;2023-02-08T08:36:11;5.50;72.10
76537;DHT22;65381;51.254;15.592;2023-02-08T08:38:39;6.70;71.20
76537;DHT22;65381;51.254;15.592;2023-02-08T08:41:15;7.50;70.60
76537;DHT22;65381;51.254;15.592;2023-02-08T08:43:44;8.10;70.90
76537;DHT22;65381;51.254;15.592;2023-02-08T08:46:14;8.60;70.60
76537;DHT22;65381;51.254;15.592;2023-02-08T08:48:43;9.00;71.00
76537;DHT22;65381;51.254;15.592;2023-02-08T08:51:11;9.90;71.40
76537;DHT22;65381;51.254;15.592;2023-02-08T08:53:40;10.70;71.20
76537;DHT22;65381;51.254;15.592;2023-02-08T08:56:08;11.30;70.20
76537;DHT22;65381;51.254;15.592;2023-02-08T08:58:36;11.60;70.10
76537;DHT22;65381;51.254;15.592;2023-02-08T09:01:04;12.00;69.70
76537;DHT22;65381;51.254;15.592;2023-02-08T09:03:32;12.30;69.80
76537;DHT22;65381;51.254;15.592;2023-02-08T09:06:00;12.90;69.80
76537;DHT22;65381;51.254;15.592;2023-02-08T09:08:28;13.30;69.70
76537;DHT22;65381;51.254;15.592;2023-02-08T09:11:02;13.70;69.30
76537;DHT22;65381;51.254;15.592;2023-02-08T09:13:30;13.70;68.40
76537;DHT22;65381;51.254;15.592;2023-02-08T09:15:58;13.70;68.60
76537;DHT22;65381;51.254;15.592;2023-02-08T09:18:25;13.70;68.20
76537;DHT22;65381;51.254;15.592;2023-02-08T09:20:53;14.00;67.80
76537;DHT22;65381;51.254;15.592;2023-02-08T09:23:21;14.10;67.00
76537;DHT22;65381;51.254;15.592;2023-02-08T09:25:49;14.60;66.80
76537;DHT22;65381;51.254;15.592;2023-02-08T09:28:17;14.50;65.50
76537;DHT22;65381;51.254;15.592;2023-02-08T09:30:45;14.30;65.30
76537;DHT22;65381;51.254;15.592;2023-02-08T09:33:13;15.00;65.10
76537;DHT22;65381;51.254;15.592;2023-02-08T09:35:41;15.30;64.30
76537;DHT22;65381;51.254;15.592;2023-02-08T09:38:09;15.60;64.60
76537;DHT22;65381;51.254;15.592;2023-02-08T09:46:07;16.00;62.80
76537;DHT22;65381;51.254;15.592;2023-02-08T09:48:39;16.00;63.50
76537;DHT22;65381;51.254;15.592;2023-02-08T09:57:32;16.70;61.80
76537;DHT22;65381;51.254;15.592;2023-02-08T10:00:15;16.70;60.50
76537;DHT22;65381;51.254;15.592;2023-02-08T10:02:46;16.60;61.30
76537;DHT22;65381;51.254;15.592;2023-02-08T10:05:20;16.80;60.30
76537;DHT22;65381;51.254;15.592;2023-02-08T10:07:49;17.50;60.10
76537;DHT22;65381;51.254;15.592;2023-02-08T10:10:58;18.40;59.30
76537;DHT22;65381;51.254;15.592;2023-02-08T10:13:35;19.20;59.30
76537;DHT22;65381;51.254;15.592;2023-02-08T10:19:07;19.30;57.60
76537;DHT22;65381;51.254;15.592;2023-02-08T10:22:48;19.50;57.20
76537;DHT22;65381;51.254;15.592;2023-02-08T10:27:53;19.50;56.90
76537;DHT22;65381;51.254;15.592;2023-02-08T10:33:09;20.30;53.40
76537;DHT22;65381;51.254;15.592;2023-02-08T10:35:44;19.00;53.50
76537;DHT22;65381;51.254;15.592;2023-02-08T10:40:50;18.40;55.00
76537;DHT22;65381;51.254;15.592;2023-02-08T10:43:37;18.50;54.10
76537;DHT22;65381;51.254;15.592;2023-02-08T10:49:15;18.00;54.40
76537;DHT22;65381;51.254;15.592;2023-02-08T10:51:47;18.40;54.10
76537;DHT22;65381;51.254;15.592;2023-02-08T10:54:16;18.30;53.90
76537;DHT22;65381;51.254;15.592;2023-02-08T10:59:27;18.90;52.30
76537;DHT22;65381;51.254;15.592;2023-02-08T11:01:57;18.60;51.90
76537;DHT22;65381;51.254;15.592;2023-02-08T11:04:25;18.40;52.40
76537;DHT22;65381;51.254;15.592;2023-02-08T11:06:53;18.50;51.80
76537;DHT22;65381;51.254;15.592;2023-02-08T11:11:53;17.60;51.10
76537;DHT22;65381;51.254;15.592;2023-02-08T11:14:36;17.80;51.60
76537;DHT22;65381;51.254;15.592;2023-02-08T11:17:32;18.10;51.10
76537;DHT22;65381;51.254;15.592;2023-02-08T11:20:00;18.10;50.80
76537;DHT22;65381;51.254;15.592;2023-02-08T11:22:29;18.00;50.50
76537;DHT22;65381;51.254;15.592;2023-02-08T11:25:05;18.20;49.70
76537;DHT22;65381;51.254;15.592;2023-02-08T11:27:36;17.70;49.90
76537;DHT22;65381;51.254;15.592;2023-02-08T11:32:47;18.90;50.10
76537;DHT22;65381;51.254;15.592;2023-02-08T11:35:22;18.90;49.50
76537;DHT22;65381;51.254;15.592;2023-02-08T11:37:55;18.00;49.30
76537;DHT22;65381;51.254;15.592;2023-02-08T11:40:35;16.90;50.00
76537;DHT22;65381;51.254;15.592;2023-02-08T11:43:04;16.50;51.10
76537;DHT22;65381;51.254;15.592;2023-02-08T11:45:34;16.40;50.30
76537;DHT22;65381;51.254;15.592;2023-02-08T11:48:03;15.90;50.70
76537;DHT22;65381;51.254;15.592;2023-02-08T11:50:35;15.60;50.80
76537;DHT22;65381;51.254;15.592;2023-02-08T11:53:06;15.10;50.60
76537;DHT22;65381;51.254;15.592;2023-02-08T11:55:34;14.70;50.70
76537;DHT22;65381;51.254;15.592;2023-02-08T12:00:40;14.40;50.90
76537;DHT22;65381;51.254;15.592;2023-02-08T12:03:17;14.00;49.90
76537;DHT22;65381;51.254;15.592;2023-02-08T12:13:54;11.70;49.70
76537;DHT22;65381;51.254;15.592;2023-02-08T12:16:49;10.50;50.80
76537;DHT22;65381;51.254;15.592;2023-02-08T12:22:05;10.10;51.20
76537;DHT22;65381;51.254;15.592;2023-02-08T12:24:39;10.40;50.90
76537;DHT22;65381;51.254;15.592;2023-02-08T12:30:19;11.10;50.30
76537;DHT22;65381;51.254;15.592;2023-02-08T12:33:17;11.60;50.00
76537;DHT22;65381;51.254;15.592;2023-02-08T12:36:01;11.90;50.30
76537;DHT22;65381;51.254;15.592;2023-02-08T12:38:57;12.20;49.90
76537;DHT22;65381;51.254;15.592;2023-02-08T12:44:40;13.00;49.60
76537;DHT22;65381;51.254;15.592;2023-02-08T12:50:16;12.50;49.40
76537;DHT22;65381;51.254;15.592;2023-02-08T12:52:55;11.30;49.30
76537;DHT22;65381;51.254;15.592;2023-02-08T12:55:37;10.30;50.50
76537;DHT22;65381;51.254;15.592;2023-02-08T13:01:04;11.00;51.20
76537;DHT22;65381;51.254;15.592;2023-02-08T13:03:47;11.90;50.60
76537;DHT22;65381;51.254;15.592;2023-02-08T13:06:22;12.30;50.20
76537;DHT22;65381;51.254;15.592;2023-02-08T13:08:56;12.40;49.70
76537;DHT22;65381;51.254;15.592;2023-02-08T13:11:58;11.90;49.40
76537;DHT22;65381;51.254;15.592;2023-02-08T13:14:34;11.40;50.70
76537;DHT22;65381;51.254;15.592;2023-02-08T13:17:44;11.70;50.40
76537;DHT22;65381;51.254;15.592;2023-02-08T13:23:22;11.90;50.70
76537;DHT22;65381;51.254;15.592;2023-02-08T13:26:37;12.10;50.60
76537;DHT22;65381;51.254;15.592;2023-02-08T13:28:48;12.50;49.70
76537;DHT22;65381;51.254;15.592;2023-02-08T13:31:25;12.00;48.90
76537;DHT22;65381;51.254;15.592;2023-02-08T13:36:54;10.10;48.20
76537;DHT22;65381;51.254;15.592;2023-02-08T13:39:44;9.60;48.90
76537;DHT22;65381;51.254;15.592;2023-02-08T13:42:26;9.40;49.80
76537;DHT22;65381;51.254;15.592;2023-02-08T13:44:57;9.70;50.00
76537;DHT22;65381;51.254;15.592;2023-02-08T13:47:29;9.80;49.50
76537;DHT22;65381;51.254;15.592;2023-02-08T13:49:59;9.50;49.20
76537;DHT22;65381;51.254;15.592;2023-02-08T14:03:29;8.60;50.10
76537;DHT22;65381;51.254;15.592;2023-02-08T14:06:20;8.50;50.30
76537;DHT22;65381;51.254;15.592;2023-02-08T14:09:07;8.20;50.00
76537;DHT22;65381;51.254;15.592;2023-02-08T14:14:38;7.50;50.10
76537;DHT22;65381;51.254;15.592;2023-02-08T14:17:40;7.20;50.10
76537;DHT22;65381;51.254;15.592;2023-02-08T14:20:04;6.90;50.20
76537;DHT22;65381;51.254;15.592;2023-02-08T14:22:38;6.60;50.50
76537;DHT22;65381;51.254;15.592;2023-02-08T14:25:20;6.40;50.60
76537;DHT22;65381;51.254;15.592;2023-02-08T14:28:01;6.10;50.80
76537;DHT22;65381;51.254;15.592;2023-02-08T14:30:35;5.80;50.90
76537;DHT22;65381;51.254;15.592;2023-02-08T14:35:33;5.20;51.30
76537;DHT22;65381;51.254;15.592;2023-02-08T14:40:55;5.00;51.50
76537;DHT22;65381;51.254;15.592;2023-02-08T14:43:39;4.70;50.90
76537;DHT22;65381;51.254;15.592;2023-02-08T14:49:16;4.10;51.90
76537;DHT22;65381;51.254;15.592;2023-02-08T14:51:53;4.00;51.90
76537;DHT22;65381;51.254;15.592;2023-02-08T14:54:33;3.90;52.00
76537;DHT22;65381;51.254;15.592;2023-02-08T14:57:09;3.80;52.00
76537;DHT22;65381;51.254;15.592;2023-02-08T14:59:43;3.60;52.10
76537;DHT22;65381;51.254;15.592;2023-02-08T15:02:20;3.50;52.20
76537;DHT22;65381;51.254;15.592;2023-02-08T15:04:49;3.30;52.20
76537;DHT22;65381;51.254;15.592;2023-02-08T15:10:15;3.10;52.30
76537;DHT22;65381;51.254;15.592;2023-02-08T15:12:46;3.00;52.30
76537;DHT22;65381;51.254;15.592;2023-02-08T15:15:37;3.00;52.30
76537;DHT22;65381;51.254;15.592;2023-02-08T15:18:16;2.90;52.20
76537;DHT22;65381;51.254;15.592;2023-02-08T15:20:54;2.80;52.20
76537;DHT22;65381;51.254;15.592;2023-02-08T15:23:23;2.60;52.30
76537;DHT22;65381;51.254;15.592;2023-02-08T15:25:59;2.30;52.40
76537;DHT22;65381;51.254;15.592;2023-02-08T15:28:30;2.10;52.60
76537;DHT22;65381;51.254;15.592;2023-02-08T15:31:04;1.90;52.70
76537;DHT22;65381;51.254;15.592;2023-02-08T15:33:37;1.70;52.70
76537;DHT22;65381;51.254;15.592;2023-02-08T15:36:21;1.40;52.60
76537;DHT22;65381;51.254;15.592;2023-02-08T15:38:53;1.10;52.80
76537;DHT22;65381;51.254;15.592;2023-02-08T15:41:30;0.80;52.80
76537;DHT22;65381;51.254;15.592;2023-02-08T15:44:12;0.60;52.90
76537;DHT22;65381;51.254;15.592;2023-02-08T15:46:43;0.50;52.90
76537;DHT22;65381;51.254;15.592;2023-02-08T15:49:16;0.20;53.20
76537;DHT22;65381;51.254;15.592;2023-02-08T15:51:45;0.00;53.40
76537;DHT22;65381;51.254;15.592;2023-02-08T15:54:16;0.00;53.50
76537;DHT22;65381;51.254;15.592;2023-02-08T15:56:55;-0.10;53.60
76537;DHT22;65381;51.254;15.592;2023-02-08T15:59:30;-0.20;53.60
76537;DHT22;65381;51.254;15.592;2023-02-08T16:02:23;-0.30;53.60
76537;DHT22;65381;51.254;15.592;2023-02-08T16:04:54;-0.40;53.70
76537;DHT22;65381;51.254;15.592;2023-02-08T16:07:43;-0.50;53.80
76537;DHT22;65381;51.254;15.592;2023-02-08T16:10:41;-0.60;53.80
76537;DHT22;65381;51.254;15.592;2023-02-08T16:13:31;-0.60;53.90
76537;DHT22;65381;51.254;15.592;2023-02-08T16:19:33;-0.80;53.90
76537;DHT22;65381;51.254;15.592;2023-02-08T16:21:40;-0.90;54.10
76537;DHT22;65381;51.254;15.592;2023-02-08T16:26:44;-1.00;54.10
76537;DHT22;65381;51.254;15.592;2023-02-08T16:32:02;-1.10;53.90
76537;DHT22;65381;51.254;15.592;2023-02-08T16:34:36;-1.20;53.90
76537;DHT22;65381;51.254;15.592;2023-02-08T16:37:21;-1.30;53.90
76537;DHT22;65381;51.254;15.592;2023-02-08T16:39:53;-1.30;53.90
76537;DHT22;65381;51.254;15.592;2023-02-08T16:42:38;-1.50;53.90
76537;DHT22;65381;51.254;15.592;2023-02-08T16:47:47;-1.50;54.50
76537;DHT22;65381;51.254;15.592;2023-02-08T16:50:21;-1.50;54.60
76537;DHT22;65381;51.254;15.592;2023-02-08T16:53:00;-1.50;54.70
76537;DHT22;65381;51.254;15.592;2023-02-08T16:55:31;-1.60;54.90
76537;DHT22;65381;51.254;15.592;2023-02-08T16:58:00;-1.60;54.80
76537;DHT22;65381;51.254;15.592;2023-02-08T17:00:32;-1.60;55.00
76537;DHT22;65381;51.254;15.592;2023-02-08T17:03:01;-1.70;54.90
76537;DHT22;65381;51.254;15.592;2023-02-08T17:05:34;-1.70;55.00
76537;DHT22;65381;51.254;15.592;2023-02-08T17:08:05;-1.80;55.20
76537;DHT22;65381;51.254;15.592;2023-02-08T17:10:35;-1.80;55.40
76537;DHT22;65381;51.254;15.592;2023-02-08T17:13:05;-1.80;55.50
76537;DHT22;65381;51.254;15.592;2023-02-08T17:15:48;-1.80;55.50
76537;DHT22;65381;51.254;15.592;2023-02-08T17:18:19;-1.90;55.70
76537;DHT22;65381;51.254;15.592;2023-02-08T17:20:48;-1.90;55.60
76537;DHT22;65381;51.254;15.592;2023-02-08T17:23:19;-1.90;55.80
76537;DHT22;65381;51.254;15.592;2023-02-08T17:25:46;-1.90;55.90
76537;DHT22;65381;51.254;15.592;2023-02-08T17:28:19;-1.90;56.00
76537;DHT22;65381;51.254;15.592;2023-02-08T17:30:48;-1.90;56.10
76537;DHT22;65381;51.254;15.592;2023-02-08T17:33:17;-2.00;56.00
76537;DHT22;65381;51.254;15.592;2023-02-08T17:35:49;-2.00;56.10
76537;DHT22;65381;51.254;15.592;2023-02-08T17:38:19;-2.10;56.30
76537;DHT22;65381;51.254;15.592;2023-02-08T17:40:48;-2.10;56.50
76537;DHT22;65381;51.254;15.592;2023-02-08T17:43:17;-2.10;56.60
76537;DHT22;65381;51.254;15.592;2023-02-08T17:45:45;-2.10;56.70
76537;DHT22;65381;51.254;15.592;2023-02-08T17:48:14;-2.10;56.80
76537;DHT22;65381;51.254;15.592;2023-02-08T17:50:44;-2.10;56.70
76537;DHT22;65381;51.254;15.592;2023-02-08T17:53:18;-2.10;56.80
76537;DHT22;65381;51.254;15.592;2023-02-08T17:55:49;-2.20;56.80
76537;DHT22;65381;51.254;15.592;2023-02-08T17:58:18;-2.20;56.90
76537;DHT22;65381;51.254;15.592;2023-02-08T18:00:47;-2.20;56.90
76537;DHT22;65381;51.254;15.592;2023-02-08T18:03:15;-2.20;57.00
76537;DHT22;65381;51.254;15.592;2023-02-08T18:05:46;-2.30;57.00
76537;DHT22;65381;51.254;15.592;2023-02-08T18:08:15;-2.30;57.00
76537;DHT22;65381;51.254;15.592;2023-02-08T18:10:44;-2.30;57.20
76537;DHT22;65381;51.254;15.592;2023-02-08T18:13:13;-2.40;57.30